PWSweather.com
Personal Weather Stations
Station Observations
UWIDEPER1
Brown County, DePere, WI 54115

Brown CountyDePere, WI 54115

Lat: 44.44, Lon: -88.05

Elevation: 610

Station Type:

www.depereweather.com

High Low Average
Temperature 53.1°F11.7°F 37.2°F2.9°F 45.3°F7.4°F
Dew Point 44.7°F7.1°F 31.3°F-0.4°F 37.7°F3.2°F
Winds 14.2 mph N22.9 mph N Calm Calm 7.0 mph 11.3 mph
Wind Gusts 21.0 mph33.8 mph -- 11.5 mph18.5 mph
Humidity 80% 73% 75%
Pressure 30.14 in1020.70 in 29.88 in1011.90 in -
Precipitation 0.00 in0.00 in - -
Hour Temp Dew Point Humidity Winds Wind Gusts Pressure Precip Precip Rate Daily Precip Total
12:00 AM 48.0°F8.9°C 39.8°F4.3°C 73% 5.8 mph NE9.3 kmh NE 12.0 mph19.3 kmh 29.88 in1011.9 mb 0.00 in0.0 mm 0.00 in/hr0.0 mm/hr 0.00 in0.0 mm
12:15 AM 46.8°F8.2°C 38.9°F3.8°C 74% 12.1 mph NW19.5 kmh NW 17.0 mph27.4 kmh 29.89 in1012.2 mb 0.00 in0.0 mm 0.00 in/hr0.0 mm/hr 0.00 in0.0 mm
12:30 AM 46.0°F7.8°C 38.2°F3.4°C 74% 5.9 mph N9.5 kmh N 8.0 mph12.9 kmh 29.89 in1012.2 mb 0.00 in0.0 mm 0.00 in/hr0.0 mm/hr 0.00 in0.0 mm
12:45 AM 45.2°F7.3°C 37.4°F3.0°C 74% 8.7 mph N14.0 kmh N 21.0 mph33.8 kmh 29.89 in1012.2 mb 0.00 in0.0 mm 0.00 in/hr0.0 mm/hr 0.00 in0.0 mm
01:00 AM 44.6°F7.0°C 36.8°F2.7°C 74% 5.1 mph NNW8.2 kmh NNW 9.0 mph14.5 kmh 29.89 in1012.2 mb 0.00 in0.0 mm 0.00 in/hr0.0 mm/hr 0.00 in0.0 mm
01:15 AM 44.1°F6.7°C 36.7°F2.6°C 75% 4.5 mph NW7.2 kmh NW 5.0 mph8.0 kmh 29.90 in1012.5 mb 0.00 in0.0 mm 0.00 in/hr0.0 mm/hr 0.00 in0.0 mm
01:30 AM 43.5°F6.4°C 36.4°F2.4°C 76% 3.5 mph NW5.6 kmh NW 12.0 mph19.3 kmh 29.90 in1012.5 mb 0.00 in0.0 mm 0.00 in/hr0.0 mm/hr 0.00 in0.0 mm
01:45 AM 42.9°F6.1°C 36.2°F2.3°C 77% 7.1 mph NW11.4 kmh NW 14.0 mph22.5 kmh 29.90 in1012.5 mb 0.00 in0.0 mm 0.00 in/hr0.0 mm/hr 0.00 in0.0 mm
02:00 AM 42.6°F5.9°C 35.6°F2.0°C 76% 4.5 mph NW7.2 kmh NW 7.0 mph11.3 kmh 29.90 in1012.5 mb 0.00 in0.0 mm 0.00 in/hr0.0 mm/hr 0.00 in0.0 mm
02:15 AM 42.2°F5.7°C 35.5°F1.9°C 77% 6.5 mph NW10.5 kmh NW 7.0 mph11.3 kmh 29.90 in1012.5 mb 0.00 in0.0 mm 0.00 in/hr0.0 mm/hr 0.00 in0.0 mm
02:30 AM 41.8°F5.4°C 35.1°F1.7°C 77% 10.0 mph N16.1 kmh N 18.0 mph29.0 kmh 29.90 in1012.5 mb 0.00 in0.0 mm 0.00 in/hr0.0 mm/hr 0.00 in0.0 mm
02:45 AM 41.3°F5.2°C 34.6°F1.4°C 77% 7.1 mph NNW11.4 kmh NNW 9.0 mph14.5 kmh 29.91 in1012.9 mb 0.00 in0.0 mm 0.00 in/hr0.0 mm/hr 0.00 in0.0 mm
03:00 AM 41.0°F5.0°C 34.7°F1.5°C 78% 2.1 mph NW3.4 kmh NW 3.0 mph4.8 kmh 29.92 in1013.2 mb 0.00 in0.0 mm 0.00 in/hr0.0 mm/hr 0.00 in0.0 mm
03:15 AM 40.5°F4.7°C 33.9°F1.1°C 77% 7.5 mph NW12.1 kmh NW 12.0 mph19.3 kmh 29.92 in1013.2 mb 0.00 in0.0 mm 0.00 in/hr0.0 mm/hr 0.00 in0.0 mm
03:30 AM 40.2°F4.6°C 33.6°F0.9°C 77% 7.1 mph NW11.4 kmh NW 10.0 mph16.1 kmh 29.92 in1013.2 mb 0.00 in0.0 mm 0.00 in/hr0.0 mm/hr 0.00 in0.0 mm
03:45 AM 39.8°F4.3°C 33.2°F0.7°C 77% 4.7 mph N7.6 kmh N 7.0 mph11.3 kmh 29.92 in1013.2 mb 0.00 in0.0 mm 0.00 in/hr0.0 mm/hr 0.00 in0.0 mm
04:00 AM 39.5°F4.2°C 33.2°F0.7°C 78% 3.2 mph NNW5.1 kmh NNW 6.0 mph9.7 kmh 29.93 in1013.5 mb 0.00 in0.0 mm 0.00 in/hr0.0 mm/hr 0.00 in0.0 mm
04:15 AM 39.2°F4.0°C 32.9°F0.5°C 78% 3.1 mph NNW5.0 kmh NNW 5.0 mph8.0 kmh 29.93 in1013.5 mb 0.00 in0.0 mm 0.00 in/hr0.0 mm/hr 0.00 in0.0 mm
04:30 AM 38.8°F3.8°C 32.5°F0.3°C 78% 7.7 mph NNW12.4 kmh NNW 10.0 mph16.1 kmh 29.93 in1013.5 mb 0.00 in0.0 mm 0.00 in/hr0.0 mm/hr 0.00 in0.0 mm
04:45 AM 38.6°F3.7°C 32.3°F0.2°C 78% 5.0 mph NNW8.0 kmh NNW 7.0 mph11.3 kmh 29.93 in1013.5 mb 0.00 in0.0 mm 0.00 in/hr0.0 mm/hr 0.00 in0.0 mm
05:00 AM 38.3°F3.5°C 32.4°F0.2°C 79% 4.8 mph NW7.7 kmh NW 7.0 mph11.3 kmh 29.93 in1013.5 mb 0.00 in0.0 mm 0.00 in/hr0.0 mm/hr 0.00 in0.0 mm
05:15 AM 37.9°F3.3°C 32.0°F0.0°C 79% 4.6 mph NW7.4 kmh NW 5.0 mph8.0 kmh 29.93 in1013.5 mb 0.00 in0.0 mm 0.00 in/hr0.0 mm/hr 0.00 in0.0 mm
05:30 AM 37.8°F3.2°C 32.2°F0.1°C 80% 3.5 mph NNW5.6 kmh NNW 7.0 mph11.3 kmh 29.93 in1013.5 mb 0.00 in0.0 mm 0.00 in/hr0.0 mm/hr 0.00 in0.0 mm
05:45 AM 37.3°F2.9°C 31.7°F-0.2°C 80% 5.0 mph NW8.0 kmh NW 8.0 mph12.9 kmh 29.94 in1013.9 mb 0.00 in0.0 mm 0.00 in/hr0.0 mm/hr 0.00 in0.0 mm
06:00 AM 37.2°F2.9°C 31.6°F-0.2°C 80% 6.8 mph NW10.9 kmh NW 12.0 mph19.3 kmh 29.95 in1014.2 mb 0.00 in0.0 mm 0.00 in/hr0.0 mm/hr 0.00 in0.0 mm
06:15 AM 37.2°F2.9°C 31.6°F-0.2°C 80% 6.7 mph NW10.8 kmh NW 10.0 mph16.1 kmh 29.95 in1014.2 mb 0.00 in0.0 mm 0.00 in/hr0.0 mm/hr 0.00 in0.0 mm
06:30 AM 37.3°F2.9°C 31.7°F-0.2°C 80% 7.4 mph NNW11.9 kmh NNW 9.0 mph14.5 kmh 29.96 in1014.6 mb 0.00 in0.0 mm 0.00 in/hr0.0 mm/hr 0.00 in0.0 mm
06:45 AM 37.6°F3.1°C 32.0°F0.0°C 80% 4.9 mph NNW7.9 kmh NNW 12.0 mph19.3 kmh 29.96 in1014.6 mb 0.00 in0.0 mm 0.00 in/hr0.0 mm/hr 0.00 in0.0 mm
07:00 AM 38.5°F3.6°C 32.6°F0.3°C 79% 5.7 mph NW9.2 kmh NW 9.0 mph14.5 kmh 29.96 in1014.6 mb 0.00 in0.0 mm 0.00 in/hr0.0 mm/hr 0.00 in0.0 mm
07:15 AM 40.3°F4.6°C 34.0°F1.1°C 78% 4.4 mph NW7.1 kmh NW 7.0 mph11.3 kmh 29.97 in1014.9 mb 0.00 in0.0 mm 0.00 in/hr0.0 mm/hr 0.00 in0.0 mm
07:30 AM 43.3°F6.3°C 35.9°F2.2°C 75% 7.3 mph NW11.7 kmh NW 11.0 mph17.7 kmh 29.96 in1014.6 mb 0.00 in0.0 mm 0.00 in/hr0.0 mm/hr 0.00 in0.0 mm
07:45 AM 45.1°F7.3°C 37.3°F2.9°C 74% 9.2 mph NNW14.8 kmh NNW 17.0 mph27.4 kmh 29.95 in1014.2 mb 0.00 in0.0 mm 0.00 in/hr0.0 mm/hr 0.00 in0.0 mm
08:00 AM 45.7°F7.6°C 37.5°F3.1°C 73% 4.9 mph NNW7.9 kmh NNW 7.0 mph11.3 kmh 29.95 in1014.2 mb 0.00 in0.0 mm 0.00 in/hr0.0 mm/hr 0.00 in0.0 mm
08:15 AM 46.9°F8.3°C 38.7°F3.7°C 73% 10.0 mph NNW16.1 kmh NNW 14.0 mph22.5 kmh 29.96 in1014.6 mb 0.00 in0.0 mm 0.00 in/hr0.0 mm/hr 0.00 in0.0 mm
08:30 AM 47.3°F8.5°C 39.1°F3.9°C 73% 9.4 mph NW15.1 kmh NW 21.0 mph33.8 kmh 29.97 in1014.9 mb 0.00 in0.0 mm 0.00 in/hr0.0 mm/hr 0.00 in0.0 mm
08:45 AM 47.3°F8.5°C 39.0°F3.9°C 73% 11.3 mph NW18.2 kmh NW 21.0 mph33.8 kmh 29.97 in1014.9 mb 0.00 in0.0 mm 0.00 in/hr0.0 mm/hr 0.00 in0.0 mm
09:00 AM 46.1°F7.8°C 37.9°F3.3°C 73% 13.1 mph NW21.1 kmh NW 19.0 mph30.6 kmh 29.97 in1014.9 mb 0.00 in0.0 mm 0.00 in/hr0.0 mm/hr 0.00 in0.0 mm
09:15 AM 44.6°F7.0°C 36.5°F2.5°C 73% 8.5 mph NNW13.7 kmh NNW 13.0 mph20.9 kmh 29.97 in1014.9 mb 0.00 in0.0 mm 0.00 in/hr0.0 mm/hr 0.00 in0.0 mm
09:30 AM 45.9°F7.7°C 37.7°F3.2°C 73% 7.0 mph N11.3 kmh N 17.0 mph27.4 kmh 29.97 in1014.9 mb 0.00 in0.0 mm 0.00 in/hr0.0 mm/hr 0.00 in0.0 mm
09:45 AM 48.7°F9.3°C 40.4°F4.7°C 73% 11.3 mph NW18.2 kmh NW 19.0 mph30.6 kmh 29.96 in1014.6 mb 0.00 in0.0 mm 0.00 in/hr0.0 mm/hr 0.00 in0.0 mm
10:00 AM 49.1°F9.5°C 40.8°F4.9°C 73% 12.5 mph NW20.1 kmh NW 17.0 mph27.4 kmh 29.97 in1014.9 mb 0.00 in0.0 mm 0.00 in/hr0.0 mm/hr 0.00 in0.0 mm
10:15 AM 49.9°F9.9°C 41.6°F5.3°C 73% 14.2 mph N22.9 kmh N 18.0 mph29.0 kmh 29.97 in1014.9 mb 0.00 in0.0 mm 0.00 in/hr0.0 mm/hr 0.00 in0.0 mm
10:30 AM 51.9°F11.1°C 43.5°F6.4°C 73% 7.0 mph NNW11.3 kmh NNW 10.0 mph16.1 kmh 29.97 in1014.9 mb 0.00 in0.0 mm 0.00 in/hr0.0 mm/hr 0.00 in0.0 mm
10:45 AM 52.6°F11.4°C 44.2°F6.8°C 73% 8.8 mph NW14.2 kmh NW 18.0 mph29.0 kmh 29.97 in1014.9 mb 0.00 in0.0 mm 0.00 in/hr0.0 mm/hr 0.00 in0.0 mm
11:00 AM 51.0°F10.6°C 42.6°F5.9°C 73% 12.0 mph NW19.3 kmh NW 17.0 mph27.4 kmh 29.97 in1014.9 mb 0.00 in0.0 mm 0.00 in/hr0.0 mm/hr 0.00 in0.0 mm
11:15 AM 50.4°F10.2°C 42.1°F5.6°C 73% 11.4 mph NW18.3 kmh NW 16.0 mph25.7 kmh 29.98 in1015.2 mb 0.00 in0.0 mm 0.00 in/hr0.0 mm/hr 0.00 in0.0 mm
11:30 AM 51.7°F10.9°C 43.3°F6.3°C 73% 11.2 mph NW18.0 kmh NW 20.0 mph32.2 kmh 29.98 in1015.2 mb 0.00 in0.0 mm 0.00 in/hr0.0 mm/hr 0.00 in0.0 mm
11:45 AM 51.9°F11.1°C 43.5°F6.4°C 73% 9.3 mph NW15.0 kmh NW 15.0 mph24.1 kmh 29.98 in1015.2 mb 0.00 in0.0 mm 0.00 in/hr0.0 mm/hr 0.00 in0.0 mm
12:00 PM 52.8°F11.6°C 44.4°F6.9°C 73% 9.9 mph NW15.9 kmh NW 14.0 mph22.5 kmh 29.98 in1015.2 mb 0.00 in0.0 mm 0.00 in/hr0.0 mm/hr 0.00 in0.0 mm
12:15 PM 52.2°F11.2°C 43.8°F6.6°C 73% 5.1 mph NNE8.2 kmh NNE 7.0 mph11.3 kmh 29.99 in1015.6 mb 0.00 in0.0 mm 0.00 in/hr0.0 mm/hr 0.00 in0.0 mm
12:30 PM 51.7°F10.9°C 43.3°F6.3°C 73% 10.8 mph N17.4 kmh N 16.0 mph25.7 kmh 29.99 in1015.6 mb 0.00 in0.0 mm 0.00 in/hr0.0 mm/hr 0.00 in0.0 mm
12:45 PM 50.2°F10.1°C 41.9°F5.5°C 73% 10.2 mph NNW16.4 kmh NNW 17.0 mph27.4 kmh 29.99 in1015.6 mb 0.00 in0.0 mm 0.00 in/hr0.0 mm/hr 0.00 in0.0 mm
01:00 PM 50.1°F10.1°C 41.7°F5.4°C 73% 11.0 mph NW17.7 kmh NW 19.0 mph30.6 kmh 29.99 in1015.6 mb 0.00 in0.0 mm 0.00 in/hr0.0 mm/hr 0.00 in0.0 mm
01:15 PM 51.7°F10.9°C 43.3°F6.3°C 73% 6.7 mph NNW10.8 kmh NNW 13.0 mph20.9 kmh 29.99 in1015.6 mb 0.00 in0.0 mm 0.00 in/hr0.0 mm/hr 0.00 in0.0 mm
01:30 PM 50.8°F10.4°C 42.5°F5.8°C 73% 11.6 mph N18.7 kmh N 18.0 mph29.0 kmh 30.00 in1015.9 mb 0.00 in0.0 mm 0.00 in/hr0.0 mm/hr 0.00 in0.0 mm
01:45 PM 50.7°F10.4°C 42.4°F5.8°C 73% 7.6 mph NW12.2 kmh NW 11.0 mph17.7 kmh 30.00 in1015.9 mb 0.00 in0.0 mm 0.00 in/hr0.0 mm/hr 0.00 in0.0 mm
02:00 PM 51.4°F10.8°C 43.0°F6.1°C 73% 8.7 mph NNE14.0 kmh NNE 13.0 mph20.9 kmh 30.00 in1015.9 mb 0.00 in0.0 mm 0.00 in/hr0.0 mm/hr 0.00 in0.0 mm
02:15 PM 50.4°F10.2°C 42.1°F5.6°C 73% 9.3 mph NNW15.0 kmh NNW 14.0 mph22.5 kmh 30.01 in1016.3 mb 0.00 in0.0 mm 0.00 in/hr0.0 mm/hr 0.00 in0.0 mm
02:30 PM 53.1°F11.7°C 44.7°F7.1°C 73% 7.5 mph N12.1 kmh N 19.0 mph30.6 kmh 30.00 in1015.9 mb 0.00 in0.0 mm 0.00 in/hr0.0 mm/hr 0.00 in0.0 mm
02:45 PM 52.2°F11.2°C 43.8°F6.6°C 73% 12.3 mph N19.8 kmh N 17.0 mph27.4 kmh 30.00 in1015.9 mb 0.00 in0.0 mm 0.00 in/hr0.0 mm/hr 0.00 in0.0 mm
03:00 PM 51.0°F10.6°C 42.6°F5.9°C 73% 6.8 mph NNW10.9 kmh NNW 16.0 mph25.7 kmh 30.01 in1016.3 mb 0.00 in0.0 mm 0.00 in/hr0.0 mm/hr 0.00 in0.0 mm
03:15 PM 50.6°F10.3°C 42.3°F5.7°C 73% 10.6 mph N17.1 kmh N 17.0 mph27.4 kmh 30.01 in1016.3 mb 0.00 in0.0 mm 0.00 in/hr0.0 mm/hr 0.00 in0.0 mm
03:30 PM 51.4°F10.8°C 43.0°F6.1°C 73% 8.2 mph N13.2 kmh N 16.0 mph25.7 kmh 30.01 in1016.3 mb 0.00 in0.0 mm 0.00 in/hr0.0 mm/hr 0.00 in0.0 mm
03:45 PM 51.4°F10.8°C 43.0°F6.1°C 73% 13.7 mph N22.0 kmh N 18.0 mph29.0 kmh 30.02 in1016.6 mb 0.00 in0.0 mm 0.00 in/hr0.0 mm/hr 0.00 in0.0 mm
04:00 PM 51.1°F10.6°C 42.7°F5.9°C 73% 8.0 mph N12.9 kmh N 11.0 mph17.7 kmh 30.02 in1016.6 mb 0.00 in0.0 mm 0.00 in/hr0.0 mm/hr 0.00 in0.0 mm
04:15 PM 50.4°F10.2°C 42.1°F5.6°C 73% 10.0 mph NNW16.1 kmh NNW 14.0 mph22.5 kmh 30.02 in1016.6 mb 0.00 in0.0 mm 0.00 in/hr0.0 mm/hr 0.00 in0.0 mm
04:30 PM 50.2°F10.1°C 41.9°F5.5°C 73% 5.7 mph NE9.2 kmh NE 14.0 mph22.5 kmh 30.03 in1016.9 mb 0.00 in0.0 mm 0.00 in/hr0.0 mm/hr 0.00 in0.0 mm
04:45 PM 50.1°F10.1°C 41.8°F5.4°C 73% 9.6 mph N15.4 kmh N 19.0 mph30.6 kmh 30.03 in1016.9 mb 0.00 in0.0 mm 0.00 in/hr0.0 mm/hr 0.00 in0.0 mm
05:00 PM 49.9°F9.9°C 41.6°F5.3°C 73% 6.2 mph N10.0 kmh N 12.0 mph19.3 kmh 30.03 in1016.9 mb 0.00 in0.0 mm 0.00 in/hr0.0 mm/hr 0.00 in0.0 mm
05:15 PM 50.1°F10.1°C 41.8°F5.4°C 73% 12.3 mph NW19.8 kmh NW 14.0 mph22.5 kmh 30.03 in1016.9 mb 0.00 in0.0 mm 0.00 in/hr0.0 mm/hr 0.00 in0.0 mm
05:30 PM 49.8°F9.9°C 41.5°F5.3°C 73% 11.8 mph N19.0 kmh N 18.0 mph29.0 kmh 30.04 in1017.3 mb 0.00 in0.0 mm 0.00 in/hr0.0 mm/hr 0.00 in0.0 mm
05:45 PM 48.9°F9.4°C 40.6°F4.8°C 73% 7.5 mph N12.1 kmh N 11.0 mph17.7 kmh 30.04 in1017.3 mb 0.00 in0.0 mm 0.00 in/hr0.0 mm/hr 0.00 in0.0 mm
06:00 PM 48.8°F9.3°C 40.5°F4.7°C 73% 8.3 mph NNW13.4 kmh NNW 13.0 mph20.9 kmh 30.04 in1017.3 mb 0.00 in0.0 mm 0.00 in/hr0.0 mm/hr 0.00 in0.0 mm
06:15 PM 49.2°F9.6°C 40.9°F4.9°C 73% 4.1 mph NNW6.6 kmh NNW 8.0 mph12.9 kmh 30.04 in1017.3 mb 0.00 in0.0 mm 0.00 in/hr0.0 mm/hr 0.00 in0.0 mm
06:30 PM 48.8°F9.3°C 40.5°F4.7°C 73% 9.5 mph N15.3 kmh N 13.0 mph20.9 kmh 30.04 in1017.3 mb 0.00 in0.0 mm 0.00 in/hr0.0 mm/hr 0.00 in0.0 mm
06:45 PM 48.0°F8.9°C 39.8°F4.3°C 73% 7.3 mph NNE11.7 kmh NNE 12.0 mph19.3 kmh 30.04 in1017.3 mb 0.00 in0.0 mm 0.00 in/hr0.0 mm/hr 0.00 in0.0 mm
07:00 PM 47.4°F8.6°C 39.2°F4.0°C 73% 8.5 mph N13.7 kmh N 12.0 mph19.3 kmh 30.05 in1017.6 mb 0.00 in0.0 mm 0.00 in/hr0.0 mm/hr 0.00 in0.0 mm
07:15 PM 46.7°F8.2°C 38.5°F3.6°C 73% 7.0 mph N11.3 kmh N 13.0 mph20.9 kmh 30.05 in1017.6 mb 0.00 in0.0 mm 0.00 in/hr0.0 mm/hr 0.00 in0.0 mm
07:30 PM 45.8°F7.7°C 37.6°F3.1°C 73% 4.0 mph N6.4 kmh N 13.0 mph20.9 kmh 30.06 in1017.9 mb 0.00 in0.0 mm 0.00 in/hr0.0 mm/hr 0.00 in0.0 mm
07:45 PM 44.8°F7.1°C 36.7°F2.6°C 73% 4.4 mph NNE7.1 kmh NNE 14.0 mph22.5 kmh 30.06 in1017.9 mb 0.00 in0.0 mm 0.00 in/hr0.0 mm/hr 0.00 in0.0 mm
08:00 PM 44.0°F6.7°C 35.9°F2.2°C 73% 4.3 mph N6.9 kmh N 6.0 mph9.7 kmh 30.07 in1018.3 mb 0.00 in0.0 mm 0.00 in/hr0.0 mm/hr 0.00 in0.0 mm
08:15 PM 43.3°F6.3°C 35.2°F1.8°C 73% 8.4 mph N13.5 kmh N 16.0 mph25.7 kmh 30.07 in1018.3 mb 0.00 in0.0 mm 0.00 in/hr0.0 mm/hr 0.00 in0.0 mm
08:30 PM 42.9°F6.1°C 34.8°F1.6°C 73% 4.9 mph NE7.9 kmh NE 11.0 mph17.7 kmh 30.07 in1018.3 mb 0.00 in0.0 mm 0.00 in/hr0.0 mm/hr 0.00 in0.0 mm
08:45 PM 42.5°F5.8°C 34.5°F1.4°C 73% 4.6 mph N7.4 kmh N 6.0 mph9.7 kmh 30.09 in1019.0 mb 0.00 in0.0 mm 0.00 in/hr0.0 mm/hr 0.00 in0.0 mm
09:00 PM 42.1°F5.6°C 34.1°F1.2°C 73% 2.6 mph N4.2 kmh N 5.0 mph8.0 kmh 30.09 in1019.0 mb 0.00 in0.0 mm 0.00 in/hr0.0 mm/hr 0.00 in0.0 mm
09:15 PM 41.6°F5.3°C 33.6°F0.9°C 73% 2.5 mph NNE4.0 kmh NNE 5.0 mph8.0 kmh 30.10 in1019.3 mb 0.00 in0.0 mm 0.00 in/hr0.0 mm/hr 0.00 in0.0 mm
09:30 PM 41.2°F5.1°C 33.5°F0.8°C 74% 7.4 mph NE11.9 kmh NE 9.0 mph14.5 kmh 30.10 in1019.3 mb 0.00 in0.0 mm 0.00 in/hr0.0 mm/hr 0.00 in0.0 mm
09:45 PM 40.9°F4.9°C 33.2°F0.7°C 74% 1.2 mph N1.9 kmh N -- 30.10 in1019.3 mb 0.00 in0.0 mm 0.00 in/hr0.0 mm/hr 0.00 in0.0 mm
10:00 PM 40.5°F4.7°C 33.2°F0.7°C 75% Calm Calm -- 30.11 in1019.6 mb 0.00 in0.0 mm 0.00 in/hr0.0 mm/hr 0.00 in0.0 mm
10:15 PM 39.8°F4.3°C 32.8°F0.4°C 76% Calm Calm -- 30.11 in1019.6 mb 0.00 in0.0 mm 0.00 in/hr0.0 mm/hr 0.00 in0.0 mm
10:30 PM 39.0°F3.9°C 32.7°F0.4°C 78% 0.5 mph NNE0.8 kmh NNE 3.0 mph4.8 kmh 30.11 in1019.6 mb 0.00 in0.0 mm 0.00 in/hr0.0 mm/hr 0.00 in0.0 mm
10:45 PM 38.5°F3.6°C 32.6°F0.3°C 79% 2.8 mph NE4.5 kmh NE 5.0 mph8.0 kmh 30.12 in1020.0 mb 0.00 in0.0 mm 0.00 in/hr0.0 mm/hr 0.00 in0.0 mm
11:00 PM 38.3°F3.5°C 32.0°F0.0°C 78% 1.1 mph NE1.8 kmh NE -- 30.12 in1020.0 mb 0.00 in0.0 mm 0.00 in/hr0.0 mm/hr 0.00 in0.0 mm
11:15 PM 38.0°F3.3°C 31.7°F-0.2°C 78% Calm Calm -- 30.12 in1020.0 mb 0.00 in0.0 mm 0.00 in/hr0.0 mm/hr 0.00 in0.0 mm
11:30 PM 38.0°F3.3°C 31.7°F-0.2°C 78% 1.1 mph NE1.8 kmh NE 2.0 mph3.2 kmh 30.13 in1020.3 mb 0.00 in0.0 mm 0.00 in/hr0.0 mm/hr 0.00 in0.0 mm
11:45 PM 37.8°F3.2°C 31.3°F-0.4°C 77% 2.5 mph NE4.0 kmh NE 7.0 mph11.3 kmh 30.14 in1020.7 mb 0.00 in0.0 mm 0.00 in/hr0.0 mm/hr 0.00 in0.0 mm